Terminal Aerodrome Forecast
Issued by NWS

Home | Current Version | Previous Version | Text Only | Print | Product List | Glossary On
Versions: 1 2 3 4 5 6 7 8 9 10 11 12 13 14 15 16 17 18 19 20 21 22 23 24 25 26 27 28 29 30 31 32 33
000
FTUS43 KPAH 290539
TAFOWB
TAF
KOWB 290539Z 2906/3006 28007KT P6SM VCTS BKN040 OVC070CB
      TEMPO 2907/2909 18012G22KT 5SM -TSRA BR SCT008 OVC035CB
     FM291400 18012G22KT P6SM BKN020
     FM291900 17013G24KT P6SM BKN030=

USA.gov is the U.S. government's official web portal to all federal, state and local government web resources and services.